Terminal Aerodrome Forecast
Issued by NWS Nashville, TN

Home | Current Version | Previous Version | Text Only | Print | Product List | Glossary On
Versions: 1 2 3 4 5 6 7 8 9 10 11 12 13 14
718
FTUS44 KOHX 280520
TAFBNA
TAF
KBNA 280520Z 2806/2906 32003KT P6SM VCSH BKN060 OVC150
      TEMPO 2806/2809 6SM -SHRA BR
     FM281000 21004KT P6SM VCSH BKN025 OVC100
     FM281600 28006KT P6SM VCTS BKN025CB
     FM282300 33008KT P6SM BKN030=

USA.gov is the U.S. government's official web portal to all federal, state and local government web resources and services.